createdAt,value
2022-12-04T00:01:27.725Z,17.49
2022-12-04T00:06:34.261Z,18.08
2022-12-04T00:11:40.356Z,17.55
2022-12-04T00:16:46.701Z,18.36
2022-12-04T00:21:52.758Z,18.35
2022-12-04T00:26:58.996Z,18.02
2022-12-04T00:32:05.254Z,17.90
2022-12-04T00:37:11.384Z,18.44
2022-12-04T00:42:17.480Z,18.52
2022-12-04T00:47:23.717Z,18.80
2022-12-04T00:52:29.828Z,18.08
2022-12-04T00:57:36.085Z,18.73
2022-12-04T01:02:42.491Z,18.19
2022-12-04T01:07:48.752Z,18.98
2022-12-04T01:12:54.889Z,18.93
2022-12-04T01:18:01.212Z,18.66
2022-12-04T01:23:07.294Z,18.83
2022-12-04T01:28:13.473Z,18.31
2022-12-04T01:33:19.601Z,18.34
2022-12-04T01:38:25.818Z,18.50
2022-12-04T01:43:31.888Z,19.29
2022-12-04T01:48:38.070Z,18.69
2022-12-04T01:53:44.130Z,19.50
2022-12-04T01:58:50.354Z,18.46
2022-12-04T02:03:56.493Z,19.40
2022-12-04T02:09:02.736Z,19.09
2022-12-04T02:14:08.785Z,18.28
2022-12-04T02:19:14.913Z,19.84
2022-12-04T02:24:21.800Z,19.48
2022-12-04T02:29:28.051Z,19.48
2022-12-04T02:34:34.220Z,19.60
2022-12-04T02:39:40.399Z,18.48
2022-12-04T02:44:46.486Z,18.94
2022-12-04T02:49:53.037Z,18.36
2022-12-04T02:55:01.110Z,18.46
2022-12-04T03:00:05.290Z,18.73
2022-12-04T03:05:11.602Z,19.77
2022-12-04T03:10:17.774Z,19.13
2022-12-04T03:15:24.204Z,19.13
2022-12-04T03:20:30.525Z,19.46
2022-12-04T03:25:36.701Z,19.78
2022-12-04T03:30:43.055Z,19.65
2022-12-04T03:35:49.393Z,20.33
2022-12-04T03:40:55.648Z,20.66
2022-12-04T03:46:02.164Z,19.61
2022-12-04T03:51:09.102Z,20.95
2022-12-04T03:56:15.200Z,20.53
2022-12-04T04:01:21.388Z,20.71
2022-12-04T04:06:27.474Z,20.05
2022-12-04T04:11:33.794Z,20.63
2022-12-04T04:16:39.933Z,19.44
2022-12-04T04:21:46.215Z,20.13
2022-12-04T04:26:52.289Z,20.28
2022-12-04T04:31:58.928Z,19.78
2022-12-04T04:37:05.059Z,20.00
2022-12-04T04:42:11.250Z,20.40
2022-12-04T04:47:17.330Z,19.55
2022-12-04T04:52:23.827Z,19.71
2022-12-04T04:57:30.011Z,19.00
2022-12-04T05:02:36.268Z,19.01
2022-12-04T05:07:42.342Z,19.16
2022-12-04T05:12:48.482Z,19.17
2022-12-04T05:17:54.558Z,19.49
2022-12-04T05:23:01.040Z,18.46
2022-12-04T05:28:07.205Z,18.84
2022-12-04T05:33:14.329Z,18.38
2022-12-04T05:38:20.428Z,18.76
2022-12-04T05:43:26.623Z,18.62
2022-12-04T05:48:32.709Z,18.30
2022-12-04T05:53:38.876Z,17.82
2022-12-04T05:58:45.366Z,17.92
2022-12-04T06:03:51.666Z,17.29
2022-12-04T06:08:57.745Z,17.31
2022-12-04T06:14:03.899Z,17.35
2022-12-04T06:19:10.379Z,17.08
2022-12-04T06:24:16.680Z,17.54
2022-12-04T06:29:22.837Z,16.71
2022-12-04T06:34:29.383Z,16.49
2022-12-04T06:39:35.444Z,17.20
2022-12-04T06:44:41.617Z,16.85
2022-12-04T06:49:48.005Z,16.26
2022-12-04T06:54:54.272Z,17.05
2022-12-04T07:00:00.457Z,16.68
2022-12-04T07:05:06.750Z,17.20
2022-12-04T07:10:13.128Z,17.33
2022-12-04T07:15:19.356Z,16.65
2022-12-04T07:20:25.828Z,16.88
2022-12-04T07:25:32.089Z,16.84
2022-12-04T07:30:38.286Z,17.21
2022-12-04T07:35:44.507Z,16.69
2022-12-04T07:40:50.596Z,16.63
2022-12-04T07:45:57.013Z,16.09
2022-12-04T07:51:03.430Z,16.62
2022-12-04T07:56:09.605Z,16.61
2022-12-04T08:01:16.066Z,16.17
2022-12-04T08:06:22.285Z,16.11
2022-12-04T08:11:28.364Z,15.88
2022-12-04T08:16:34.708Z,15.85
2022-12-04T08:21:40.791Z,15.89
2022-12-04T08:26:46.994Z,16.62
2022-12-04T08:31:53.146Z,15.77
2022-12-04T08:36:59.279Z,16.17
2022-12-04T08:42:05.742Z,15.57
2022-12-04T08:47:12.516Z,15.63
2022-12-04T08:52:18.597Z,15.13
2022-12-04T08:57:24.793Z,15.44
2022-12-04T09:02:30.860Z,15.67
2022-12-04T09:07:37.401Z,14.85
2022-12-04T09:12:43.415Z,14.71
2022-12-04T09:17:49.641Z,14.93
2022-12-04T09:23:04.120Z,14.90
2022-12-04T09:28:01.517Z,14.88
2022-12-04T09:33:07.604Z,14.83
2022-12-04T09:38:13.859Z,15.80
2022-12-04T09:43:20.323Z,15.20
2022-12-04T09:48:26.552Z,15.19
2022-12-04T09:53:32.635Z,15.31
2022-12-04T09:58:38.943Z,15.38
2022-12-04T10:03:45.309Z,15.13
2022-12-04T10:08:51.502Z,15.15
2022-12-04T10:14:32.225Z,17.25
2022-12-04T10:19:38.471Z,15.44
2022-12-04T10:24:44.575Z,15.32
2022-12-04T10:29:50.831Z,15.35
2022-12-04T10:34:57.047Z,15.10
2022-12-04T10:40:03.472Z,14.94
2022-12-04T10:45:09.582Z,15.27
2022-12-04T10:50:15.841Z,15.30
2022-12-04T10:55:21.968Z,14.61
2022-12-04T11:00:28.280Z,15.15
2022-12-04T11:05:34.460Z,14.59
2022-12-04T11:10:40.740Z,15.75
2022-12-04T11:15:46.990Z,15.58
2022-12-04T11:20:53.269Z,14.44
2022-12-04T11:26:05.192Z,15.32
2022-12-04T11:31:05.559Z,14.90
2022-12-04T11:36:11.612Z,15.20
2022-12-04T11:41:17.823Z,15.09
2022-12-04T11:46:24.044Z,15.38
2022-12-04T11:51:30.471Z,15.36
2022-12-04T11:56:36.590Z,16.19
2022-12-04T12:01:43.619Z,16.04
2022-12-04T12:06:49.656Z,16.06
2022-12-04T12:11:55.863Z,15.47
2022-12-04T12:17:02.016Z,16.43
2022-12-04T12:22:08.506Z,17.12
2022-12-04T12:27:14.682Z,16.13
2022-12-04T12:32:21.304Z,16.09
2022-12-04T12:37:27.515Z,16.69
2022-12-04T12:42:34.253Z,17.30
2022-12-04T12:47:40.926Z,15.99
2022-12-04T12:52:47.768Z,14.62
2022-12-04T12:57:54.363Z,15.76
2022-12-04T13:03:01.015Z,16.70
2022-12-04T13:08:07.699Z,16.60
2022-12-04T13:13:14.404Z,16.66
2022-12-04T13:18:20.826Z,16.53
2022-12-04T13:23:28.772Z,16.05
2022-12-04T13:28:35.498Z,16.64
2022-12-04T13:33:42.380Z,16.20
2022-12-04T13:38:52.556Z,16.15
2022-12-04T13:43:55.811Z,17.41
2022-12-04T13:49:02.471Z,16.47
2022-12-04T13:54:09.052Z,17.37
2022-12-04T13:59:15.637Z,16.53
2022-12-04T14:04:22.302Z,17.81
2022-12-04T14:09:28.921Z,16.54
2022-12-04T14:14:35.640Z,18.15
2022-12-04T14:19:42.111Z,18.25
2022-12-04T14:24:48.831Z,16.96
2022-12-04T14:29:55.266Z,16.97
2022-12-04T14:35:02.898Z,15.90
2022-12-04T14:40:09.362Z,16.14
2022-12-04T14:45:16.028Z,15.24
2022-12-04T14:50:22.486Z,15.14
2022-12-04T14:55:29.522Z,15.49
2022-12-04T15:00:36.168Z,16.00
2022-12-04T15:05:42.334Z,14.93
2022-12-04T15:10:48.561Z,16.19
2022-12-04T15:15:55.032Z,15.45
2022-12-04T15:21:01.099Z,14.40
2022-12-04T15:26:07.332Z,15.31
2022-12-04T15:31:13.401Z,16.41
2022-12-04T15:36:19.776Z,15.65
2022-12-04T15:41:26.956Z,15.81
2022-12-04T15:46:33.300Z,16.28
2022-12-04T15:51:39.313Z,16.18
2022-12-04T15:56:45.607Z,16.48
2022-12-04T16:01:51.842Z,17.93
2022-12-04T16:06:57.980Z,15.97
2022-12-04T16:12:04.039Z,16.02
2022-12-04T16:17:10.274Z,15.98
2022-12-04T16:22:20.128Z,15.02
2022-12-04T16:27:22.240Z,15.12
2022-12-04T16:32:28.354Z,15.25
2022-12-04T16:37:34.899Z,15.55
2022-12-04T16:42:41.093Z,15.67
2022-12-04T16:49:04.302Z,18.22
2022-12-04T16:54:05.436Z,16.08
2022-12-04T16:59:12.530Z,15.53
2022-12-04T17:04:17.608Z,15.39
2022-12-04T17:09:23.905Z,15.43
2022-12-04T17:14:30.063Z,16.02
2022-12-04T17:19:36.277Z,16.51
2022-12-04T17:24:49.175Z,17.65
2022-12-04T17:29:48.573Z,16.27
2022-12-04T17:34:55.203Z,16.51
2022-12-04T17:40:00.343Z,17.35
2022-12-04T17:45:06.803Z,15.81
2022-12-04T17:50:13.017Z,15.45
2022-12-04T17:55:19.445Z,15.28
2022-12-04T18:00:26.543Z,15.39
2022-12-04T18:05:32.632Z,16.72
2022-12-04T18:10:38.842Z,15.53
2022-12-04T18:15:45.760Z,15.55
2022-12-04T18:20:51.998Z,16.43
2022-12-04T18:26:00.399Z,16.92
2022-12-04T18:31:06.724Z,17.77
2022-12-04T18:36:12.918Z,16.05
2022-12-04T18:41:19.112Z,16.60
2022-12-04T18:46:25.664Z,16.88
2022-12-04T18:51:31.756Z,16.12
2022-12-04T18:56:37.983Z,15.94
2022-12-04T19:01:44.114Z,16.58
2022-12-04T19:06:50.294Z,16.12
2022-12-04T19:11:56.532Z,16.58
2022-12-04T19:17:02.786Z,16.50
2022-12-04T19:22:08.951Z,17.13
2022-12-04T19:27:18.261Z,17.10
2022-12-04T19:32:24.486Z,17.93
2022-12-04T19:37:30.523Z,17.90
2022-12-04T19:42:36.766Z,17.39
2022-12-04T19:47:42.915Z,17.53
2022-12-04T19:53:04.630Z,17.79
2022-12-04T19:57:50.743Z,19.18
2022-12-04T20:02:57.086Z,18.05
2022-12-04T20:13:08.182Z,17.64
2022-12-04T20:18:14.253Z,17.13
2022-12-04T20:23:20.451Z,17.00
2022-12-04T20:28:26.650Z,17.33
2022-12-04T20:33:32.904Z,16.62
2022-12-04T20:38:38.986Z,16.80
2022-12-04T20:43:45.147Z,15.81
2022-12-04T20:48:51.649Z,15.57
2022-12-04T20:53:58.155Z,15.30
2022-12-04T20:59:04.307Z,14.16
2022-12-04T21:04:10.515Z,13.29
2022-12-04T21:09:16.694Z,11.90
2022-12-04T21:14:23.658Z,12.74
2022-12-04T21:19:29.847Z,11.83
2022-12-04T21:24:36.118Z,10.86
2022-12-04T21:29:42.234Z,11.15
2022-12-04T21:34:48.948Z,10.88
2022-12-04T21:39:55.856Z,11.95
2022-12-04T21:45:01.189Z,12.06
2022-12-04T21:50:07.589Z,12.92
2022-12-04T21:55:13.841Z,13.30
2022-12-04T22:00:19.977Z,13.44
2022-12-04T22:05:26.152Z,13.24
2022-12-04T22:10:32.222Z,13.65
2022-12-04T22:15:38.527Z,13.18
2022-12-04T22:20:44.590Z,13.52
2022-12-04T22:25:50.894Z,12.93
2022-12-04T22:30:57.093Z,13.03
2022-12-04T22:36:03.350Z,13.11
2022-12-04T22:41:09.424Z,13.25
2022-12-04T22:46:15.716Z,12.45
2022-12-04T22:51:21.773Z,13.03
2022-12-04T22:56:28.005Z,12.54
2022-12-04T23:01:34.154Z,12.59
2022-12-04T23:06:40.328Z,12.14
2022-12-04T23:11:46.729Z,12.37
2022-12-04T23:16:53.064Z,12.50
2022-12-04T23:21:59.541Z,12.82
2022-12-04T23:27:05.750Z,12.72
2022-12-04T23:32:11.882Z,12.03
2022-12-04T23:37:18.016Z,12.06
2022-12-04T23:42:24.146Z,12.59
2022-12-04T23:47:30.812Z,12.31
2022-12-04T23:52:36.902Z,12.48
2022-12-04T23:57:43.137Z,12.70
